createdAt,value
2022-09-18T00:01:33.228Z,71.33
2022-09-18T00:04:03.645Z,71.26
2022-09-18T00:06:36.408Z,71.33
2022-09-18T00:09:06.844Z,71.30
2022-09-18T00:11:38.959Z,72.16
2022-09-18T00:14:08.679Z,71.45
2022-09-18T00:16:36.434Z,70.47
2022-09-18T00:19:04.157Z,71.30
2022-09-18T00:21:32.829Z,70.71
2022-09-18T00:24:01.945Z,71.30
2022-09-18T00:26:29.287Z,69.73
2022-09-18T00:28:58.113Z,70.24
2022-09-18T00:31:32.822Z,68.94
2022-09-18T00:34:03.221Z,68.25
2022-09-18T00:36:30.737Z,68.78
2022-09-18T00:39:03.347Z,69.92
2022-09-18T00:41:35.184Z,69.40
2022-09-18T00:44:37.501Z,69.77
2022-09-18T00:47:10.513Z,70.01
2022-09-18T00:49:40.959Z,70.11
2022-09-18T00:52:09.068Z,70.00
2022-09-18T00:54:43.859Z,69.21
2022-09-18T00:57:22.638Z,69.47
2022-09-18T00:59:52.080Z,69.30
2022-09-18T01:02:19.619Z,69.07
2022-09-18T01:04:48.667Z,69.23
2022-09-18T01:08:10.859Z,70.17
2022-09-18T01:11:05.119Z,70.14
2022-09-18T01:14:15.335Z,69.34
2022-09-18T01:16:51.074Z,69.44
2022-09-18T01:19:51.350Z,69.02
2022-09-18T01:22:52.065Z,69.63
2022-09-18T01:26:25.218Z,68.79
2022-09-18T01:29:34.702Z,69.86
2022-09-18T01:32:28.179Z,69.11
2022-09-18T01:35:48.014Z,69.34
2022-09-18T01:38:25.997Z,69.38
2022-09-18T01:41:12.968Z,69.25
2022-09-18T01:43:42.541Z,70.09
2022-09-18T01:46:17.374Z,69.72
2022-09-18T01:48:52.309Z,69.32
2022-09-18T01:51:29.772Z,70.17
2022-09-18T01:54:07.278Z,70.23
2022-09-18T01:56:53.357Z,70.03
2022-09-18T01:59:31.466Z,68.74
2022-09-18T02:02:19.352Z,69.12
2022-09-18T02:04:50.184Z,68.81
2022-09-18T02:07:56.240Z,68.77
2022-09-18T02:10:26.249Z,69.36
2022-09-18T02:12:57.533Z,69.10
2022-09-18T02:15:30.472Z,69.36
2022-09-18T02:18:08.336Z,70.15
2022-09-18T02:20:41.240Z,70.18
2022-09-18T02:23:09.253Z,70.16
2022-09-18T02:25:57.816Z,70.32
2022-09-18T02:28:28.614Z,70.64
2022-09-18T02:30:56.039Z,70.18
2022-09-18T02:33:29.391Z,69.61
2022-09-18T02:36:37.872Z,68.76
2022-09-18T02:39:18.526Z,69.80
2022-09-18T02:42:17.475Z,69.49
2022-09-18T02:45:27.761Z,69.67
2022-09-18T02:48:29.884Z,69.03
2022-09-18T02:51:09.682Z,70.27
2022-09-18T02:54:30.244Z,70.81
2022-09-18T02:57:24.406Z,70.01
2022-09-18T02:59:59.581Z,70.08
2022-09-18T03:02:26.901Z,69.76
2022-09-18T03:04:54.870Z,69.47
2022-09-18T03:07:37.150Z,71.25
2022-09-18T03:10:04.997Z,70.58
2022-09-18T03:12:32.412Z,70.11
2022-09-18T03:14:59.634Z,71.05
2022-09-18T03:17:26.660Z,71.66
2022-09-18T03:19:54.214Z,71.37
2022-09-18T03:22:21.185Z,70.75
2022-09-18T03:24:49.233Z,69.78
2022-09-18T03:27:18.361Z,70.60
2022-09-18T03:29:46.221Z,70.16
2022-09-18T03:32:13.453Z,71.15
2022-09-18T03:34:46.357Z,70.60
2022-09-18T03:37:15.384Z,71.67
2022-09-18T03:39:43.284Z,71.33
2022-09-18T03:42:13.794Z,72.08
2022-09-18T03:44:41.112Z,71.14
2022-09-18T03:47:17.611Z,71.90
2022-09-18T03:49:44.834Z,72.12
2022-09-18T03:52:11.753Z,71.41
2022-09-18T03:54:46.300Z,72.23
2022-09-18T03:57:31.928Z,71.94
2022-09-18T04:00:10.613Z,71.36
2022-09-18T04:02:44.049Z,71.17
2022-09-18T04:05:29.752Z,70.85
2022-09-18T04:08:28.930Z,70.71
2022-09-18T04:11:16.449Z,70.50
2022-09-18T04:13:43.389Z,70.73
2022-09-18T04:16:13.291Z,71.11
2022-09-18T04:18:40.507Z,71.36
2022-09-18T04:21:08.964Z,72.16
2022-09-18T04:23:36.012Z,71.64
2022-09-18T04:26:09.112Z,71.53
2022-09-18T04:28:40.378Z,71.12
2022-09-18T04:31:10.578Z,71.58
2022-09-18T04:33:37.728Z,72.16
2022-09-18T04:36:07.479Z,72.33
2022-09-18T04:38:35.724Z,72.24
2022-09-18T04:41:02.626Z,71.90
2022-09-18T04:43:30.497Z,72.08
2022-09-18T04:45:59.226Z,72.57
2022-09-18T04:48:26.326Z,72.65
2022-09-18T04:50:54.405Z,72.55
2022-09-18T04:53:22.371Z,72.97
2022-09-18T04:55:49.823Z,73.04
2022-09-18T04:58:18.772Z,73.71
2022-09-18T05:00:50.669Z,72.42
2022-09-18T05:03:19.608Z,72.61
2022-09-18T05:05:50.377Z,72.92
2022-09-18T05:08:18.262Z,73.50
2022-09-18T05:10:45.396Z,72.95
2022-09-18T05:13:13.125Z,73.31
2022-09-18T05:15:49.061Z,73.01
2022-09-18T05:18:16.840Z,72.27
2022-09-18T05:20:44.813Z,73.61
2022-09-18T05:23:12.025Z,72.57
2022-09-18T05:25:39.013Z,72.76
2022-09-18T05:28:06.188Z,72.41
2022-09-18T05:30:39.948Z,71.71
2022-09-18T05:33:08.241Z,71.54
2022-09-18T05:35:39.933Z,71.44
2022-09-18T05:38:07.160Z,71.87
2022-09-18T05:40:37.401Z,72.72
2022-09-18T05:43:05.952Z,73.34
2022-09-18T05:45:34.757Z,73.18
2022-09-18T05:48:07.193Z,72.39
2022-09-18T05:50:38.269Z,73.54
2022-09-18T05:53:17.632Z,72.53
2022-09-18T05:55:50.920Z,67.16
2022-09-18T05:58:20.684Z,71.05
2022-09-18T06:00:52.428Z,71.25
2022-09-18T06:03:26.651Z,71.42
2022-09-18T06:05:55.009Z,72.18
2022-09-18T06:08:23.153Z,71.70
2022-09-18T06:10:50.520Z,72.13
2022-09-18T06:13:18.799Z,71.61
2022-09-18T06:15:52.479Z,71.78
2022-09-18T06:18:28.577Z,73.00
2022-09-18T06:20:59.601Z,72.58
2022-09-18T06:23:29.652Z,72.91
2022-09-18T06:26:07.321Z,71.24
2022-09-18T06:28:38.410Z,70.50
2022-09-18T06:31:06.362Z,70.55
2022-09-18T06:33:49.783Z,70.61
2022-09-18T06:36:17.068Z,70.45
2022-09-18T06:38:59.264Z,70.45
2022-09-18T06:41:26.766Z,69.88
2022-09-18T06:43:55.100Z,70.00
2022-09-18T06:46:31.628Z,68.93
2022-09-18T06:49:07.146Z,69.31
2022-09-18T06:51:34.199Z,69.74
2022-09-18T06:54:07.122Z,69.72
2022-09-18T06:56:34.433Z,68.78
2022-09-18T06:59:01.651Z,68.71
2022-09-18T07:01:29.421Z,67.67
2022-09-18T07:04:08.049Z,68.02
2022-09-18T07:06:45.913Z,67.54
2022-09-18T07:09:14.212Z,68.53
2022-09-18T07:11:53.503Z,68.08
2022-09-18T07:14:27.013Z,67.68
2022-09-18T07:16:58.067Z,66.55
2022-09-18T07:19:25.019Z,65.59
2022-09-18T07:21:52.937Z,66.58
2022-09-18T07:24:20.212Z,66.61
2022-09-18T07:26:47.774Z,65.90
2022-09-18T07:29:14.864Z,64.41
2022-09-18T07:31:41.810Z,65.85
2022-09-18T07:34:12.404Z,68.00
2022-09-18T07:36:39.320Z,66.80
2022-09-18T07:39:06.430Z,67.83
2022-09-18T07:41:49.757Z,67.25
2022-09-18T07:44:16.852Z,65.42
2022-09-18T07:46:43.805Z,68.21
2022-09-18T07:49:12.459Z,65.93
2022-09-18T07:51:41.568Z,66.95
2022-09-18T07:54:09.977Z,65.38
2022-09-18T07:56:50.894Z,64.93
2022-09-18T07:59:21.546Z,64.91
2022-09-18T08:01:55.962Z,63.78
2022-09-18T08:04:25.423Z,65.74
2022-09-18T08:07:04.349Z,64.91
2022-09-18T08:09:55.273Z,63.47
2022-09-18T08:12:42.462Z,65.03
2022-09-18T08:15:10.368Z,64.33
2022-09-18T08:18:01.172Z,64.02
2022-09-18T08:20:47.080Z,63.33
2022-09-18T08:23:35.619Z,64.32
2022-09-18T08:26:05.126Z,64.38
2022-09-18T08:28:32.701Z,64.37
2022-09-18T08:31:01.766Z,64.64
2022-09-18T08:33:29.020Z,65.74
2022-09-18T08:35:56.151Z,65.34
2022-09-18T08:38:37.668Z,63.94
2022-09-18T08:41:54.880Z,63.59
2022-09-18T08:44:34.957Z,62.84
2022-09-18T08:47:26.885Z,63.28
2022-09-18T08:50:26.588Z,63.76
2022-09-18T08:53:23.063Z,64.03
2022-09-18T08:56:20.992Z,63.94
2022-09-18T08:59:45.017Z,64.10
2022-09-18T09:02:48.522Z,63.06
2022-09-18T09:05:35.528Z,62.85
2022-09-18T09:08:32.328Z,64.17
2022-09-18T09:11:29.807Z,62.88
2022-09-18T09:14:45.921Z,63.49
2022-09-18T09:17:50.581Z,62.72
2022-09-18T09:20:35.132Z,62.14
2022-09-18T09:23:17.521Z,63.37
2022-09-18T09:26:16.485Z,62.57
2022-09-18T09:29:02.963Z,61.86
2022-09-18T09:31:59.082Z,62.43
2022-09-18T09:34:58.985Z,59.93
2022-09-18T09:37:48.782Z,61.58
2022-09-18T09:40:41.400Z,59.85
2022-09-18T09:43:30.988Z,58.21
2022-09-18T09:46:18.065Z,58.88
2022-09-18T09:49:05.393Z,59.60
2022-09-18T09:52:04.609Z,61.81
2022-09-18T09:54:35.404Z,55.37
2022-09-18T09:57:45.261Z,58.50
2022-09-18T10:00:18.137Z,56.60
2022-09-18T10:03:52.825Z,56.24
2022-09-18T10:07:08.107Z,58.48
2022-09-18T10:09:44.877Z,55.72
2022-09-18T10:13:04.710Z,52.85
2022-09-18T10:15:41.856Z,53.40
2022-09-18T10:18:19.388Z,53.24
2022-09-18T10:20:48.193Z,49.33
2022-09-18T10:24:00.693Z,50.88
2022-09-18T10:26:39.750Z,52.16
2022-09-18T10:29:09.499Z,54.19
2022-09-18T10:31:56.849Z,51.60
2022-09-18T10:34:40.575Z,54.91
2022-09-18T10:37:39.851Z,52.55
2022-09-18T10:40:37.190Z,54.27
2022-09-18T10:43:07.717Z,54.20
2022-09-18T10:45:41.741Z,53.30
2022-09-18T10:48:32.114Z,52.70
2022-09-18T10:51:01.640Z,52.99
2022-09-18T10:53:45.337Z,55.21
2022-09-18T10:56:21.971Z,52.47
2022-09-18T10:58:52.615Z,51.26
2022-09-18T11:01:20.786Z,51.75
2022-09-18T11:04:04.996Z,53.06
2022-09-18T11:06:37.912Z,48.88
2022-09-18T11:09:23.508Z,48.40
2022-09-18T11:11:52.115Z,48.17
2022-09-18T11:14:32.167Z,46.52
2022-09-18T11:17:05.199Z,49.70
2022-09-18T11:19:39.347Z,47.78
2022-09-18T11:22:50.632Z,47.62
2022-09-18T11:25:31.007Z,51.82
2022-09-18T11:28:30.144Z,50.03
2022-09-18T11:31:16.811Z,50.54
2022-09-18T11:33:52.133Z,49.57
2022-09-18T11:36:32.015Z,49.09
2022-09-18T11:39:55.726Z,50.99
2022-09-18T11:42:25.828Z,51.98
2022-09-18T11:44:53.654Z,51.02
2022-09-18T11:47:43.118Z,50.99
2022-09-18T11:50:29.471Z,49.37
2022-09-18T11:53:09.253Z,47.57
2022-09-18T11:55:52.699Z,48.00
2022-09-18T11:58:35.092Z,48.55
2022-09-18T12:01:33.229Z,48.65
2022-09-18T12:04:35.164Z,48.68
2022-09-18T12:07:37.938Z,49.43
2022-09-18T12:10:49.423Z,49.15
2022-09-18T12:14:01.215Z,49.92
2022-09-18T12:17:00.624Z,50.37
2022-09-18T12:19:49.872Z,49.40
2022-09-18T12:22:31.877Z,50.08
2022-09-18T12:25:00.936Z,48.40
2022-09-18T12:28:29.131Z,48.83
2022-09-18T12:31:39.796Z,48.75
2022-09-18T12:34:28.867Z,48.19
2022-09-18T12:37:40.436Z,49.85
2022-09-18T12:40:33.942Z,47.55
2022-09-18T12:43:47.368Z,46.73
2022-09-18T12:46:59.890Z,46.42
2022-09-18T12:49:54.396Z,45.97
2022-09-18T12:53:26.033Z,46.53
2022-09-18T12:56:24.125Z,46.32
2022-09-18T12:59:09.364Z,47.21
2022-09-18T13:01:45.190Z,47.45
2022-09-18T13:04:46.647Z,46.01
2022-09-18T13:07:19.069Z,47.97
2022-09-18T13:10:11.775Z,47.33
2022-09-18T13:12:53.029Z,47.11
2022-09-18T13:15:25.709Z,46.61
2022-09-18T13:18:04.228Z,48.60
2022-09-18T13:20:40.423Z,47.11
2022-09-18T13:23:17.899Z,47.49
2022-09-18T13:25:47.871Z,48.06
2022-09-18T13:28:19.671Z,49.95
2022-09-18T13:31:07.406Z,49.83
2022-09-18T13:33:34.556Z,48.77
2022-09-18T13:36:01.990Z,48.29
2022-09-18T13:38:30.085Z,48.06
2022-09-18T13:41:04.860Z,49.75
2022-09-18T13:43:39.205Z,50.42
2022-09-18T13:46:07.580Z,50.82
2022-09-18T13:48:46.448Z,49.70
2022-09-18T13:51:32.974Z,52.32
2022-09-18T13:54:23.126Z,51.64
2022-09-18T13:57:14.791Z,51.64
2022-09-18T14:00:01.878Z,49.87
2022-09-18T14:02:41.001Z,50.78
2022-09-18T14:05:34.985Z,50.06
2022-09-18T14:08:24.289Z,49.80
2022-09-18T14:11:17.771Z,50.67
2022-09-18T14:13:58.877Z,52.53
2022-09-18T14:16:33.199Z,52.69
2022-09-18T14:19:18.060Z,51.13
2022-09-18T14:21:45.248Z,50.55
2022-09-18T14:24:46.433Z,49.48
2022-09-18T14:27:57.941Z,49.77
2022-09-18T14:30:31.141Z,50.42
2022-09-18T14:33:09.174Z,51.29
2022-09-18T14:35:55.618Z,48.23
2022-09-18T14:38:28.779Z,49.53
2022-09-18T14:41:21.973Z,49.45
2022-09-18T14:43:58.821Z,50.03
2022-09-18T14:46:27.992Z,50.64
2022-09-18T14:48:55.986Z,49.06
2022-09-18T14:51:40.618Z,47.98
2022-09-18T14:54:24.754Z,49.46
2022-09-18T14:57:00.179Z,49.46
2022-09-18T14:59:29.200Z,50.85
2022-09-18T15:02:31.553Z,51.48
2022-09-18T15:05:01.855Z,52.17
2022-09-18T15:07:29.915Z,52.33
2022-09-18T15:10:01.289Z,51.37
2022-09-18T15:12:30.624Z,52.88
2022-09-18T15:14:58.993Z,52.13
2022-09-18T15:17:28.518Z,51.93
2022-09-18T15:20:02.288Z,51.40
2022-09-18T15:22:30.439Z,51.49
2022-09-18T15:25:00.978Z,51.38
2022-09-18T15:27:29.823Z,51.38
2022-09-18T15:30:06.692Z,50.32
2022-09-18T15:32:44.699Z,51.11
2022-09-18T15:35:23.300Z,51.44
2022-09-18T15:38:03.049Z,50.94
2022-09-18T15:40:38.908Z,51.60
2022-09-18T15:43:30.082Z,51.20
2022-09-18T15:46:10.660Z,50.39
2022-09-18T15:48:48.174Z,50.14
2022-09-18T15:51:24.763Z,49.88
2022-09-18T15:54:17.691Z,49.74
2022-09-18T15:56:57.777Z,49.65
2022-09-18T15:59:36.975Z,48.72
2022-09-18T16:02:22.204Z,49.31
2022-09-18T16:04:49.344Z,48.82
2022-09-18T16:07:16.163Z,49.23
2022-09-18T16:09:45.898Z,48.33
2022-09-18T16:12:31.090Z,49.61
2022-09-18T16:15:20.616Z,48.67
2022-09-18T16:18:03.962Z,48.82
2022-09-18T16:20:49.765Z,48.75
2022-09-18T16:23:51.382Z,50.22
2022-09-18T16:26:29.436Z,50.31
2022-09-18T16:29:04.015Z,49.55
2022-09-18T16:31:35.011Z,50.40
2022-09-18T16:34:03.548Z,50.35
2022-09-18T16:36:41.443Z,50.63
2022-09-18T16:39:18.062Z,50.63
2022-09-18T16:41:46.925Z,50.74
2022-09-18T16:44:15.932Z,51.25
2022-09-18T16:47:00.396Z,51.92
2022-09-18T16:49:35.650Z,52.88
2022-09-18T16:52:03.101Z,52.33
2022-09-18T16:54:30.083Z,53.37
2022-09-18T16:57:20.571Z,52.95
2022-09-18T16:59:49.628Z,53.85
2022-09-18T17:02:20.447Z,53.61
2022-09-18T17:04:48.657Z,54.01
2022-09-18T17:07:15.644Z,53.84
2022-09-18T17:09:42.781Z,55.66
2022-09-18T17:12:09.925Z,56.64
2022-09-18T17:14:36.989Z,57.67
2022-09-18T17:17:06.006Z,56.82
2022-09-18T17:19:33.104Z,56.67
2022-09-18T17:22:00.053Z,57.13
2022-09-18T17:24:28.013Z,57.35
2022-09-18T17:26:55.176Z,57.17
2022-09-18T17:29:22.253Z,57.13
2022-09-18T17:31:49.516Z,58.88
2022-09-18T17:34:16.622Z,62.13
2022-09-18T17:36:43.965Z,60.10
2022-09-18T17:39:11.957Z,58.39
2022-09-18T17:41:40.665Z,57.82
2022-09-18T17:44:07.555Z,56.28
2022-09-18T17:46:35.202Z,55.34
2022-09-18T17:49:02.258Z,53.85
2022-09-18T17:51:29.428Z,53.24
2022-09-18T17:54:03.663Z,52.90
2022-09-18T17:56:32.628Z,53.50
2022-09-18T17:59:05.542Z,54.29
2022-09-18T18:01:37.429Z,53.53
2022-09-18T18:04:05.723Z,52.57
2022-09-18T18:06:33.731Z,53.51
2022-09-18T18:09:01.076Z,53.57
2022-09-18T18:11:38.113Z,53.93
2022-09-18T18:14:06.144Z,54.41
2022-09-18T18:16:34.540Z,54.78
2022-09-18T18:19:06.291Z,53.46
2022-09-18T18:22:20.091Z,54.04
2022-09-18T18:24:49.610Z,53.28
2022-09-18T18:27:18.399Z,54.51
2022-09-18T18:29:45.459Z,55.29
2022-09-18T18:32:15.019Z,56.13
2022-09-18T18:34:42.005Z,56.11
2022-09-18T18:37:08.932Z,54.76
2022-09-18T18:39:35.899Z,55.33
2022-09-18T18:42:03.019Z,54.73
2022-09-18T18:44:29.947Z,53.57
2022-09-18T18:46:56.963Z,54.68
2022-09-18T18:49:24.124Z,54.97
2022-09-18T18:51:51.969Z,55.58
2022-09-18T18:54:22.023Z,56.67
2022-09-18T18:56:50.261Z,56.75
2022-09-18T18:59:19.685Z,56.14
2022-09-18T19:01:47.442Z,56.44
2022-09-18T19:04:18.977Z,56.37
2022-09-18T19:06:46.140Z,55.38
2022-09-18T19:09:28.491Z,53.98
2022-09-18T19:11:55.550Z,53.64
2022-09-18T19:14:31.728Z,53.37
2022-09-18T19:16:59.503Z,54.16
2022-09-18T19:19:28.393Z,53.44
2022-09-18T19:21:59.739Z,53.53
2022-09-18T19:24:28.215Z,52.45
2022-09-18T19:26:55.373Z,53.11
2022-09-18T19:29:22.547Z,53.74
2022-09-18T19:31:50.467Z,53.06
2022-09-18T19:34:21.978Z,53.73
2022-09-18T19:36:50.213Z,52.33
2022-09-18T19:39:21.192Z,53.21
2022-09-18T19:42:12.979Z,52.08
2022-09-18T19:45:01.559Z,52.14
2022-09-18T19:47:37.806Z,52.82
2022-09-18T19:50:05.973Z,52.65
2022-09-18T19:52:33.339Z,52.39
2022-09-18T19:55:00.230Z,52.07
2022-09-18T19:57:28.580Z,51.76
2022-09-18T19:59:57.169Z,52.53
2022-09-18T20:02:25.443Z,52.38
2022-09-18T20:04:52.606Z,52.95
2022-09-18T20:07:19.588Z,53.22
2022-09-18T20:09:46.534Z,53.71
2022-09-18T20:12:13.712Z,54.10
2022-09-18T20:14:40.851Z,54.16
2022-09-18T20:17:08.319Z,54.99
2022-09-18T20:19:36.016Z,55.64
2022-09-18T20:22:04.016Z,57.25
2022-09-18T20:24:31.968Z,57.08
2022-09-18T20:27:00.628Z,57.37
2022-09-18T20:29:29.113Z,58.93
2022-09-18T20:31:56.241Z,59.23
2022-09-18T20:34:24.921Z,58.28
2022-09-18T20:36:53.673Z,58.36
2022-09-18T20:39:21.666Z,58.10
2022-09-18T20:41:50.891Z,58.25
2022-09-18T20:44:18.340Z,58.48
2022-09-18T20:46:45.662Z,58.28
2022-09-18T20:49:17.308Z,57.92
2022-09-18T20:51:44.448Z,58.65
2022-09-18T20:54:14.581Z,58.27
2022-09-18T20:56:43.261Z,57.64
2022-09-18T20:59:16.742Z,57.89
2022-09-18T21:01:46.807Z,57.86
2022-09-18T21:04:17.730Z,58.37
2022-09-18T21:06:55.933Z,57.73
2022-09-18T21:09:26.466Z,58.90
2022-09-18T21:11:54.809Z,58.52
2022-09-18T21:14:24.060Z,58.16
2022-09-18T21:16:51.526Z,58.31
2022-09-18T21:19:20.066Z,58.53
2022-09-18T21:21:48.555Z,58.82
2022-09-18T21:24:16.318Z,59.11
2022-09-18T21:26:52.319Z,58.91
2022-09-18T21:29:26.578Z,59.02
2022-09-18T21:31:57.901Z,58.78
2022-09-18T21:34:30.196Z,58.31
2022-09-18T21:37:05.723Z,59.03
2022-09-18T21:39:32.840Z,58.91
2022-09-18T21:42:01.604Z,59.41
2022-09-18T21:44:31.942Z,59.07
2022-09-18T21:47:02.460Z,57.70
2022-09-18T21:49:30.184Z,56.80
2022-09-18T21:52:01.645Z,56.96
2022-09-18T21:54:29.204Z,57.33
2022-09-18T21:56:56.686Z,57.46
2022-09-18T21:59:27.200Z,57.79
2022-09-18T22:01:55.162Z,58.75
2022-09-18T22:04:32.431Z,58.59
2022-09-18T22:07:01.557Z,58.71
2022-09-18T22:09:36.521Z,58.84
2022-09-18T22:12:05.367Z,60.13
2022-09-18T22:14:34.915Z,60.54
2022-09-18T22:17:09.345Z,60.21
2022-09-18T22:19:41.144Z,60.24
2022-09-18T22:22:08.922Z,60.79
2022-09-18T22:24:36.004Z,60.25
2022-09-18T22:27:08.512Z,61.02
2022-09-18T22:29:38.543Z,60.83
2022-09-18T22:32:06.581Z,61.40
2022-09-18T22:34:34.912Z,60.79
2022-09-18T22:37:03.173Z,60.97
2022-09-18T22:39:30.792Z,60.12
2022-09-18T22:41:57.918Z,60.10
2022-09-18T22:44:25.509Z,59.88
2022-09-18T22:46:53.592Z,58.90
2022-09-18T22:49:22.731Z,58.57
2022-09-18T22:51:50.587Z,58.21
2022-09-18T22:54:23.732Z,57.97
2022-09-18T22:56:52.386Z,57.51
2022-09-18T22:59:23.033Z,57.65
2022-09-18T23:01:58.165Z,58.25
2022-09-18T23:04:29.202Z,57.55
2022-09-18T23:06:57.735Z,57.57
2022-09-18T23:09:25.988Z,57.57
2022-09-18T23:11:53.462Z,57.94
2022-09-18T23:14:28.756Z,56.92
2022-09-18T23:16:58.044Z,57.32
2022-09-18T23:19:35.150Z,58.83
2022-09-18T23:22:02.729Z,57.42
2022-09-18T23:24:31.611Z,57.86
2022-09-18T23:26:59.097Z,57.08
2022-09-18T23:29:28.360Z,58.43
2022-09-18T23:31:57.706Z,58.65
2022-09-18T23:34:31.261Z,57.85
2022-09-18T23:36:59.792Z,57.96
2022-09-18T23:39:33.528Z,60.41
2022-09-18T23:42:02.603Z,62.43
2022-09-18T23:44:31.299Z,63.81
2022-09-18T23:47:00.050Z,62.13
2022-09-18T23:49:28.744Z,61.11
2022-09-18T23:51:56.548Z,60.52
2022-09-18T23:54:27.217Z,59.26
2022-09-18T23:56:54.923Z,59.06
2022-09-18T23:59:24.434Z,59.68
